createdAt,value
2023-05-15T00:02:58.666Z,92244.81
2023-05-15T00:08:00.558Z,92245.25
2023-05-15T00:13:02.335Z,92239.09
2023-05-15T00:18:04.353Z,92237.19
2023-05-15T00:23:06.108Z,92229.22
2023-05-15T00:28:07.874Z,92216.78
2023-05-15T00:33:09.753Z,92231.78
2023-05-15T00:38:12.047Z,92243.03
2023-05-15T00:43:15.935Z,92235.63
2023-05-15T00:48:19.554Z,92225.13
2023-05-15T00:53:22.119Z,92235.25
2023-05-15T00:58:24.698Z,92240.97
2023-05-15T01:03:26.888Z,92235.25
2023-05-15T01:08:46.073Z,92239.22
2023-05-15T01:13:47.990Z,92235.19
2023-05-15T01:18:49.922Z,92231.00
2023-05-15T01:24:29.235Z,92232.66
2023-05-15T01:29:44.493Z,92235.09
2023-05-15T01:34:52.505Z,92234.16
2023-05-15T01:40:00.449Z,92227.59
2023-05-15T01:45:05.874Z,92225.47
2023-05-15T01:50:12.815Z,92215.88
2023-05-15T01:55:16.174Z,92246.34
2023-05-15T02:00:18.822Z,92235.59
2023-05-15T02:05:21.084Z,92218.28
2023-05-15T02:10:23.740Z,92229.91
2023-05-15T02:15:29.644Z,92231.31
2023-05-15T02:20:31.487Z,92231.13
2023-05-15T02:26:00.703Z,92240.28
2023-05-15T02:31:12.820Z,92225.50
2023-05-15T02:36:23.501Z,92235.75
2023-05-15T02:41:26.126Z,92218.38
2023-05-15T02:46:29.197Z,92219.66
2023-05-15T02:51:31.182Z,92213.88
2023-05-15T02:56:33.085Z,92215.75
2023-05-15T03:01:34.952Z,92202.41
2023-05-15T03:06:37.102Z,92209.19
2023-05-15T03:11:38.956Z,92208.09
2023-05-15T03:16:40.789Z,92208.44
2023-05-15T03:21:42.615Z,92225.34
2023-05-15T03:26:45.100Z,92214.09
2023-05-15T03:31:46.923Z,92218.50
2023-05-15T03:36:48.924Z,92219.34
2023-05-15T03:41:50.768Z,92221.91
2023-05-15T03:46:52.541Z,92215.63
2023-05-15T03:51:54.437Z,92211.16
2023-05-15T03:56:56.943Z,92223.28
2023-05-15T04:02:04.913Z,92217.09
2023-05-15T04:07:07.431Z,92220.66
2023-05-15T04:12:09.342Z,92226.88
2023-05-15T04:17:11.178Z,92226.19
2023-05-15T04:22:13.733Z,92223.19
2023-05-15T04:27:15.866Z,92220.56
2023-05-15T04:32:17.751Z,92218.75
2023-05-15T04:37:19.722Z,92227.22
2023-05-15T04:42:21.548Z,92212.63
2023-05-15T04:47:23.820Z,92213.41
2023-05-15T04:52:25.649Z,92219.47
2023-05-15T04:57:27.894Z,92215.34
2023-05-15T05:02:29.792Z,92220.22
2023-05-15T05:07:31.750Z,92220.53
2023-05-15T05:12:33.581Z,92218.75
2023-05-15T05:17:35.511Z,92220.34
2023-05-15T05:22:37.989Z,92223.97
2023-05-15T05:27:40.947Z,92235.72
2023-05-15T05:32:42.916Z,92219.53
2023-05-15T05:37:44.806Z,92223.78
2023-05-15T05:42:46.578Z,92224.13
2023-05-15T05:47:48.476Z,92236.13
2023-05-15T05:52:50.846Z,92221.38
2023-05-15T05:57:52.607Z,92220.38
2023-05-15T06:02:59.339Z,92222.97
2023-05-15T06:08:02.326Z,92223.66
2023-05-15T06:13:04.125Z,92200.25
2023-05-15T06:18:06.149Z,92211.59
2023-05-15T06:23:08.087Z,92223.63
2023-05-15T06:28:09.912Z,92208.03
2023-05-15T06:33:11.735Z,92212.88
2023-05-15T06:38:13.625Z,92209.13
2023-05-15T06:43:15.407Z,92220.63
2023-05-15T06:48:17.292Z,92210.66
2023-05-15T06:53:20.982Z,92209.44
2023-05-15T06:58:22.937Z,92217.66
2023-05-15T07:03:24.742Z,92216.63
2023-05-15T07:08:26.960Z,92228.81
2023-05-15T07:13:28.742Z,92206.13
2023-05-15T07:18:30.866Z,92220.72
2023-05-15T07:23:32.773Z,92210.78
2023-05-15T07:28:34.619Z,92199.34
2023-05-15T07:33:36.428Z,92208.78
2023-05-15T07:38:38.336Z,92211.75
2023-05-15T07:43:40.186Z,92209.38
2023-05-15T07:48:41.915Z,92188.91
2023-05-15T07:53:44.241Z,92206.09
2023-05-15T07:58:46.038Z,92203.22
2023-05-15T08:03:47.872Z,92197.69
2023-05-15T08:08:49.674Z,92187.00
2023-05-15T08:13:51.495Z,92190.72
2023-05-15T08:18:55.740Z,92162.28
2023-05-15T08:23:59.033Z,92183.94
2023-05-15T08:29:01.446Z,92170.94
2023-05-15T08:34:03.259Z,92173.97
2023-05-15T08:39:05.272Z,92181.69
2023-05-15T08:44:09.369Z,92165.00
2023-05-15T08:49:30.571Z,92168.84
2023-05-15T08:54:33.094Z,92162.03
2023-05-15T08:59:35.327Z,92162.47
2023-05-15T09:04:37.081Z,92169.81
2023-05-15T09:09:39.826Z,92169.63
2023-05-15T09:14:42.917Z,92172.69
2023-05-15T09:19:44.716Z,92172.88
2023-05-15T09:24:48.374Z,92172.66
2023-05-15T09:29:54.326Z,92176.91
2023-05-15T09:34:56.316Z,92163.78
2023-05-15T09:40:13.612Z,92136.34
2023-05-15T09:45:18.593Z,92154.16
2023-05-15T09:50:23.060Z,92165.81
2023-05-15T09:55:25.139Z,92163.56
2023-05-15T10:00:27.668Z,92159.19
2023-05-15T10:05:42.473Z,92152.50
2023-05-15T10:10:45.834Z,92138.63
2023-05-15T10:15:49.799Z,92141.41
2023-05-15T10:20:51.895Z,92132.19
2023-05-15T10:26:04.326Z,92132.72
2023-05-15T10:31:07.503Z,92128.97
2023-05-15T10:36:10.342Z,92123.91
2023-05-15T10:41:17.239Z,92104.34
2023-05-15T10:46:21.302Z,92107.31
2023-05-15T10:51:28.612Z,92101.97
2023-05-15T10:56:31.660Z,92096.44
2023-05-15T11:01:36.041Z,92085.97
2023-05-15T11:06:39.659Z,92093.47
2023-05-15T11:12:01.346Z,92090.31
2023-05-15T11:17:05.297Z,92080.94
2023-05-15T11:22:19.316Z,92080.06
2023-05-15T11:27:25.856Z,92083.03
2023-05-15T11:32:53.170Z,92072.31
2023-05-15T11:38:16.244Z,92071.44
2023-05-15T11:43:22.131Z,92076.63
2023-05-15T11:48:31.239Z,92077.31
2023-05-15T11:53:33.568Z,92070.25
2023-05-15T11:58:35.438Z,92075.38
2023-05-15T12:03:37.388Z,92059.63
2023-05-15T12:08:39.331Z,92077.06
2023-05-15T12:13:41.114Z,92072.28
2023-05-15T12:18:42.917Z,92058.69
2023-05-15T12:24:06.377Z,92041.81
2023-05-15T12:29:10.106Z,92053.25
2023-05-15T12:34:12.091Z,92043.22
2023-05-15T12:39:13.914Z,92039.59
2023-05-15T12:44:19.788Z,92051.09
2023-05-15T12:49:23.036Z,92042.94
2023-05-15T12:54:24.787Z,92033.72
2023-05-15T12:59:26.622Z,92038.91
2023-05-15T13:04:28.352Z,92008.06
2023-05-15T13:09:30.954Z,92038.81
2023-05-15T13:14:34.101Z,92027.59
2023-05-15T13:19:35.974Z,92041.06
2023-05-15T13:24:38.262Z,92039.13
2023-05-15T13:29:40.048Z,92034.63
2023-05-15T13:34:41.800Z,92031.47
2023-05-15T13:39:43.645Z,92032.38
2023-05-15T13:44:45.499Z,92025.72
2023-05-15T13:49:47.242Z,92034.59
2023-05-15T13:54:48.988Z,92015.97
2023-05-15T13:59:50.761Z,92017.47
2023-05-15T14:04:55.654Z,92003.66
2023-05-15T14:09:58.208Z,92015.56
2023-05-15T14:15:00.926Z,91990.94
2023-05-15T14:20:02.932Z,92025.22
2023-05-15T14:25:05.914Z,92030.16
2023-05-15T14:30:08.411Z,92026.81
2023-05-15T14:35:10.168Z,92022.38
2023-05-15T14:40:12.386Z,92024.75
2023-05-15T14:45:14.320Z,92000.81
2023-05-15T14:50:16.164Z,92012.13
2023-05-15T14:55:21.907Z,91991.75
2023-05-15T15:00:24.207Z,92014.19
2023-05-15T15:05:26.150Z,92020.03
2023-05-15T15:10:28.946Z,92022.28
2023-05-15T15:15:32.865Z,92031.72
2023-05-15T15:20:34.887Z,92038.09
2023-05-15T15:25:36.676Z,92030.19
2023-05-15T15:30:38.829Z,92033.50
2023-05-15T15:35:40.943Z,92035.31
2023-05-15T15:40:42.749Z,92033.06
2023-05-15T15:45:44.657Z,92026.88
2023-05-15T15:50:46.548Z,92023.97
2023-05-15T15:55:48.555Z,92043.66
2023-05-15T16:00:50.397Z,92034.03
2023-05-15T16:05:52.171Z,92040.94
2023-05-15T16:10:54.921Z,92034.94
2023-05-15T16:15:56.780Z,92036.19
2023-05-15T16:20:58.626Z,92041.19
2023-05-15T16:26:01.151Z,92045.56
2023-05-15T16:31:04.042Z,92051.06
2023-05-15T16:36:06.179Z,92049.19
2023-05-15T16:41:08.050Z,92038.88
2023-05-15T16:46:10.103Z,92038.59
2023-05-15T16:51:11.996Z,92038.56
2023-05-15T16:56:14.149Z,92040.75
2023-05-15T17:01:16.045Z,92043.78
2023-05-15T17:06:17.912Z,92054.69
2023-05-15T17:11:21.298Z,92045.63
2023-05-15T17:16:23.113Z,92054.97
2023-05-15T17:21:24.979Z,92046.97
2023-05-15T17:26:26.808Z,92052.16
2023-05-15T17:31:29.598Z,92061.06
2023-05-15T17:36:32.258Z,92067.66
2023-05-15T17:41:34.072Z,92063.50
2023-05-15T17:46:36.007Z,92073.75
2023-05-15T17:51:38.062Z,92068.94
2023-05-15T17:56:39.872Z,92068.22
2023-05-15T18:01:41.804Z,92070.94
2023-05-15T18:06:43.836Z,92082.25
2023-05-15T18:11:45.650Z,92085.34
2023-05-15T18:16:47.416Z,92098.03
2023-05-15T18:21:49.362Z,92099.72
2023-05-15T18:26:51.403Z,92108.38
2023-05-15T18:31:53.271Z,92113.00
2023-05-15T18:36:55.209Z,92112.16
2023-05-15T18:41:57.090Z,92120.75
2023-05-15T18:46:59.215Z,92126.13
2023-05-15T18:52:01.295Z,92108.59
2023-05-15T18:57:03.266Z,92119.38
2023-05-15T19:02:05.316Z,92125.34
2023-05-15T19:07:07.902Z,92130.81
2023-05-15T19:12:09.734Z,92116.94
2023-05-15T19:17:11.703Z,92128.28
2023-05-15T19:22:14.190Z,92114.91
2023-05-15T19:27:16.224Z,92129.88
2023-05-15T19:32:18.045Z,92128.97
2023-05-15T19:37:19.869Z,92125.78
2023-05-15T19:42:21.609Z,92133.09
2023-05-15T19:47:23.874Z,92139.81
2023-05-15T19:52:25.719Z,92132.81
2023-05-15T19:57:27.661Z,92142.75
2023-05-15T20:02:29.539Z,92145.28
2023-05-15T20:07:31.379Z,92154.72
2023-05-15T20:12:33.085Z,92156.03
2023-05-15T20:17:34.855Z,92138.50
2023-05-15T20:22:37.413Z,92129.06
2023-05-15T20:27:39.203Z,92148.38
2023-05-15T20:32:41.219Z,92152.00
2023-05-15T20:37:43.626Z,92148.06
2023-05-15T20:42:45.456Z,92153.16
2023-05-15T20:47:48.505Z,92155.09
2023-05-15T20:52:50.245Z,92155.41
2023-05-15T20:57:51.996Z,92155.44
2023-05-15T21:02:54.213Z,92158.50
2023-05-15T21:07:56.110Z,92164.53
2023-05-15T21:12:59.206Z,92159.63
2023-05-15T21:18:01.427Z,92164.94
2023-05-15T21:23:03.343Z,92164.56
2023-05-15T21:28:05.316Z,92166.19
2023-05-15T21:33:07.204Z,92163.75
2023-05-15T21:38:09.030Z,92154.38
2023-05-15T21:43:10.874Z,92148.97
2023-05-15T21:48:12.707Z,92135.41
2023-05-15T21:53:14.426Z,92137.75
2023-05-15T21:58:16.271Z,92144.78
2023-05-15T22:03:19.834Z,92135.06
2023-05-15T22:08:21.784Z,92131.16
2023-05-15T22:13:23.554Z,92128.84
2023-05-15T22:18:26.373Z,92134.91
2023-05-15T22:23:28.218Z,92110.22
2023-05-15T22:28:30.028Z,92124.38
2023-05-15T22:33:32.115Z,92122.22
2023-05-15T22:38:33.880Z,92106.66
2023-05-15T22:43:35.652Z,92110.56
2023-05-15T22:48:37.436Z,92112.41
2023-05-15T22:53:39.258Z,92123.34
2023-05-15T22:58:41.001Z,92108.75
2023-05-15T23:03:43.193Z,92112.59
2023-05-15T23:08:45.125Z,92106.97
2023-05-15T23:13:46.842Z,92107.66
2023-05-15T23:18:48.903Z,92096.25
2023-05-15T23:23:51.085Z,92098.19
2023-05-15T23:28:53.093Z,92100.19
2023-05-15T23:33:54.944Z,92102.06
2023-05-15T23:38:56.697Z,92106.47
2023-05-15T23:43:58.457Z,92097.56
2023-05-15T23:49:00.703Z,92092.44
2023-05-15T23:54:02.467Z,92094.22
2023-05-15T23:59:04.223Z,92085.47
